sensor_id;sensor_type;location;lat;lon;timestamp;temperature;humidity
20349;DHT22;10332;50.208;18.988;2024-03-02T00:01:37;10.00;1.00
20349;DHT22;10332;50.208;18.988;2024-03-02T00:04:07;10.00;1.00
20349;DHT22;10332;50.208;18.988;2024-03-02T00:06:35;10.00;1.00
20349;DHT22;10332;50.208;18.988;2024-03-02T00:09:02;10.00;1.00
20349;DHT22;10332;50.208;18.988;2024-03-02T00:11:30;10.00;1.00
20349;DHT22;10332;50.208;18.988;2024-03-02T00:13:57;9.90;1.00
20349;DHT22;10332;50.208;18.988;2024-03-02T00:16:30;10.00;1.00
20349;DHT22;10332;50.208;18.988;2024-03-02T00:19:07;10.00;1.00
20349;DHT22;10332;50.208;18.988;2024-03-02T00:21:36;10.00;1.00
20349;DHT22;10332;50.208;18.988;2024-03-02T00:24:21;10.00;1.00
20349;DHT22;10332;50.208;18.988;2024-03-02T00:26:53;9.90;1.00
20349;DHT22;10332;50.208;18.988;2024-03-02T00:29:20;9.80;1.00
20349;DHT22;10332;50.208;18.988;2024-03-02T00:31:48;9.80;1.00
20349;DHT22;10332;50.208;18.988;2024-03-02T00:34:17;9.70;1.00
20349;DHT22;10332;50.208;18.988;2024-03-02T00:36:44;9.70;1.00
20349;DHT22;10332;50.208;18.988;2024-03-02T00:39:14;9.70;1.00
20349;DHT22;10332;50.208;18.988;2024-03-02T00:41:42;9.60;1.00
20349;DHT22;10332;50.208;18.988;2024-03-02T00:44:12;9.60;1.00
20349;DHT22;10332;50.208;18.988;2024-03-02T00:46:40;9.60;1.00
20349;DHT22;10332;50.208;18.988;2024-03-02T00:51:39;9.60;1.00
20349;DHT22;10332;50.208;18.988;2024-03-02T00:54:08;9.60;1.00
20349;DHT22;10332;50.208;18.988;2024-03-02T00:56:36;9.50;1.00
20349;DHT22;10332;50.208;18.988;2024-03-02T00:59:03;9.60;1.00
20349;DHT22;10332;50.208;18.988;2024-03-02T01:01:31;9.50;1.00
20349;DHT22;10332;50.208;18.988;2024-03-02T01:03:59;9.50;1.00
20349;DHT22;10332;50.208;18.988;2024-03-02T01:06:26;9.40;1.00
20349;DHT22;10332;50.208;18.988;2024-03-02T01:08:53;9.40;1.00
20349;DHT22;10332;50.208;18.988;2024-03-02T01:11:21;9.40;1.00
20349;DHT22;10332;50.208;18.988;2024-03-02T01:13:51;9.40;1.00
20349;DHT22;10332;50.208;18.988;2024-03-02T01:16:19;9.40;1.00
20349;DHT22;10332;50.208;18.988;2024-03-02T01:18:58;9.40;1.00
20349;DHT22;10332;50.208;18.988;2024-03-02T01:21:26;9.40;1.00
20349;DHT22;10332;50.208;18.988;2024-03-02T01:23:53;9.40;1.00
20349;DHT22;10332;50.208;18.988;2024-03-02T01:26:21;9.40;1.00
20349;DHT22;10332;50.208;18.988;2024-03-02T01:28:48;9.40;1.00
20349;DHT22;10332;50.208;18.988;2024-03-02T01:31:15;9.40;1.00
20349;DHT22;10332;50.208;18.988;2024-03-02T01:33:43;9.40;1.00
20349;DHT22;10332;50.208;18.988;2024-03-02T01:36:10;9.40;1.00
20349;DHT22;10332;50.208;18.988;2024-03-02T01:38:38;9.40;1.00
20349;DHT22;10332;50.208;18.988;2024-03-02T01:41:05;9.40;1.00
20349;DHT22;10332;50.208;18.988;2024-03-02T01:43:33;9.40;1.00
20349;DHT22;10332;50.208;18.988;2024-03-02T01:46:00;9.40;1.00
20349;DHT22;10332;50.208;18.988;2024-03-02T01:48:27;9.40;1.00
20349;DHT22;10332;50.208;18.988;2024-03-02T01:50:54;9.50;1.00
20349;DHT22;10332;50.208;18.988;2024-03-02T01:53:22;9.60;1.00
20349;DHT22;10332;50.208;18.988;2024-03-02T01:55:50;9.60;1.00
20349;DHT22;10332;50.208;18.988;2024-03-02T01:58:18;9.70;1.00
20349;DHT22;10332;50.208;18.988;2024-03-02T02:00:45;9.70;1.00
20349;DHT22;10332;50.208;18.988;2024-03-02T02:03:13;9.70;1.00
20349;DHT22;10332;50.208;18.988;2024-03-02T02:05:42;9.80;1.00
20349;DHT22;10332;50.208;18.988;2024-03-02T02:08:10;9.80;1.00
20349;DHT22;10332;50.208;18.988;2024-03-02T02:10:37;9.80;1.00
20349;DHT22;10332;50.208;18.988;2024-03-02T02:13:04;9.80;1.00
20349;DHT22;10332;50.208;18.988;2024-03-02T02:15:32;9.80;1.00
20349;DHT22;10332;50.208;18.988;2024-03-02T02:18:02;9.80;1.00
20349;DHT22;10332;50.208;18.988;2024-03-02T02:20:30;9.80;1.00
20349;DHT22;10332;50.208;18.988;2024-03-02T02:22:59;9.80;1.00
20349;DHT22;10332;50.208;18.988;2024-03-02T02:25:28;9.80;1.00
20349;DHT22;10332;50.208;18.988;2024-03-02T02:27:56;9.80;1.00
20349;DHT22;10332;50.208;18.988;2024-03-02T02:30:26;9.80;1.00
20349;DHT22;10332;50.208;18.988;2024-03-02T02:32:54;9.80;1.00
20349;DHT22;10332;50.208;18.988;2024-03-02T02:35:22;9.70;1.00
20349;DHT22;10332;50.208;18.988;2024-03-02T02:37:52;9.70;1.00
20349;DHT22;10332;50.208;18.988;2024-03-02T02:40:20;9.70;1.00
20349;DHT22;10332;50.208;18.988;2024-03-02T02:42:48;9.70;1.00
20349;DHT22;10332;50.208;18.988;2024-03-02T02:45:16;9.60;1.00
20349;DHT22;10332;50.208;18.988;2024-03-02T02:47:44;9.60;1.00
20349;DHT22;10332;50.208;18.988;2024-03-02T02:50:12;9.60;1.00
20349;DHT22;10332;50.208;18.988;2024-03-02T02:52:41;9.60;1.00
20349;DHT22;10332;50.208;18.988;2024-03-02T02:55:12;9.60;1.00
20349;DHT22;10332;50.208;18.988;2024-03-02T02:57:41;9.60;1.00
20349;DHT22;10332;50.208;18.988;2024-03-02T03:00:12;9.60;1.00
20349;DHT22;10332;50.208;18.988;2024-03-02T03:02:46;9.60;1.00
20349;DHT22;10332;50.208;18.988;2024-03-02T03:05:15;9.60;1.00
20349;DHT22;10332;50.208;18.988;2024-03-02T03:07:43;9.60;1.00
20349;DHT22;10332;50.208;18.988;2024-03-02T03:10:16;9.60;1.00
20349;DHT22;10332;50.208;18.988;2024-03-02T03:12:44;9.60;1.00
20349;DHT22;10332;50.208;18.988;2024-03-02T03:15:11;9.60;1.00
20349;DHT22;10332;50.208;18.988;2024-03-02T03:17:40;9.60;1.00
20349;DHT22;10332;50.208;18.988;2024-03-02T03:20:08;9.60;1.00
20349;DHT22;10332;50.208;18.988;2024-03-02T03:22:39;9.60;1.00
20349;DHT22;10332;50.208;18.988;2024-03-02T03:25:07;9.70;1.00
20349;DHT22;10332;50.208;18.988;2024-03-02T03:27:37;9.70;1.00
20349;DHT22;10332;50.208;18.988;2024-03-02T03:30:05;9.70;1.00
20349;DHT22;10332;50.208;18.988;2024-03-02T03:32:34;9.80;1.00
20349;DHT22;10332;50.208;18.988;2024-03-02T03:35:02;9.80;1.00
20349;DHT22;10332;50.208;18.988;2024-03-02T03:37:29;9.70;1.00
20349;DHT22;10332;50.208;18.988;2024-03-02T03:40:04;9.80;1.00
20349;DHT22;10332;50.208;18.988;2024-03-02T03:42:38;9.80;1.00
20349;DHT22;10332;50.208;18.988;2024-03-02T03:45:07;9.80;99.90
20349;DHT22;10332;50.208;18.988;2024-03-02T03:47:34;9.80;99.90
20349;DHT22;10332;50.208;18.988;2024-03-02T03:50:01;9.80;99.90
20349;DHT22;10332;50.208;18.988;2024-03-02T03:52:33;9.80;99.90
20349;DHT22;10332;50.208;18.988;2024-03-02T03:55:01;9.80;99.90
20349;DHT22;10332;50.208;18.988;2024-03-02T03:57:28;9.80;99.90
20349;DHT22;10332;50.208;18.988;2024-03-02T03:59:55;9.80;99.90
20349;DHT22;10332;50.208;18.988;2024-03-02T04:02:23;9.90;99.90
20349;DHT22;10332;50.208;18.988;2024-03-02T04:04:51;9.80;99.90
20349;DHT22;10332;50.208;18.988;2024-03-02T04:07:19;9.80;99.90
20349;DHT22;10332;50.208;18.988;2024-03-02T04:09:46;9.80;99.90
20349;DHT22;10332;50.208;18.988;2024-03-02T04:12:14;9.80;99.90
20349;DHT22;10332;50.208;18.988;2024-03-02T04:14:41;9.80;99.90
20349;DHT22;10332;50.208;18.988;2024-03-02T04:17:10;9.70;99.90
20349;DHT22;10332;50.208;18.988;2024-03-02T04:19:37;9.70;99.90
20349;DHT22;10332;50.208;18.988;2024-03-02T04:22:04;9.70;99.90
20349;DHT22;10332;50.208;18.988;2024-03-02T04:24:44;9.70;99.90
20349;DHT22;10332;50.208;18.988;2024-03-02T04:27:12;9.60;99.90
20349;DHT22;10332;50.208;18.988;2024-03-02T04:29:39;9.60;99.90
20349;DHT22;10332;50.208;18.988;2024-03-02T04:32:06;9.60;99.90
20349;DHT22;10332;50.208;18.988;2024-03-02T04:34:34;9.60;99.90
20349;DHT22;10332;50.208;18.988;2024-03-02T04:37:01;9.60;99.90
20349;DHT22;10332;50.208;18.988;2024-03-02T04:39:28;9.50;99.90
20349;DHT22;10332;50.208;18.988;2024-03-02T04:41:56;9.50;99.90
20349;DHT22;10332;50.208;18.988;2024-03-02T04:44:23;9.40;99.90
20349;DHT22;10332;50.208;18.988;2024-03-02T04:46:50;9.40;99.90
20349;DHT22;10332;50.208;18.988;2024-03-02T04:49:18;9.40;1.00
20349;DHT22;10332;50.208;18.988;2024-03-02T04:51:45;9.40;1.00
20349;DHT22;10332;50.208;18.988;2024-03-02T04:54:12;9.40;1.00
20349;DHT22;10332;50.208;18.988;2024-03-02T04:56:41;9.40;1.00
20349;DHT22;10332;50.208;18.988;2024-03-02T04:59:12;9.40;1.00
20349;DHT22;10332;50.208;18.988;2024-03-02T05:01:39;9.40;1.00
20349;DHT22;10332;50.208;18.988;2024-03-02T05:04:07;9.40;1.00
20349;DHT22;10332;50.208;18.988;2024-03-02T05:06:34;9.40;1.00
20349;DHT22;10332;50.208;18.988;2024-03-02T05:09:01;9.40;99.90
20349;DHT22;10332;50.208;18.988;2024-03-02T05:11:28;9.40;99.90
20349;DHT22;10332;50.208;18.988;2024-03-02T05:14:06;9.40;99.90
20349;DHT22;10332;50.208;18.988;2024-03-02T05:16:35;9.40;99.90
20349;DHT22;10332;50.208;18.988;2024-03-02T05:19:02;9.30;99.90
20349;DHT22;10332;50.208;18.988;2024-03-02T05:21:29;9.30;99.90
20349;DHT22;10332;50.208;18.988;2024-03-02T05:23:57;9.20;99.90
20349;DHT22;10332;50.208;18.988;2024-03-02T05:26:24;9.30;1.00
20349;DHT22;10332;50.208;18.988;2024-03-02T05:28:52;9.20;1.00
20349;DHT22;10332;50.208;18.988;2024-03-02T05:31:19;9.20;1.00
20349;DHT22;10332;50.208;18.988;2024-03-02T05:33:46;9.20;99.90
20349;DHT22;10332;50.208;18.988;2024-03-02T05:36:14;9.20;99.90
20349;DHT22;10332;50.208;18.988;2024-03-02T05:38:41;9.20;1.00
20349;DHT22;10332;50.208;18.988;2024-03-02T05:41:09;9.20;1.00
20349;DHT22;10332;50.208;18.988;2024-03-02T05:43:37;9.20;1.00
20349;DHT22;10332;50.208;18.988;2024-03-02T05:46:04;9.20;1.00
20349;DHT22;10332;50.208;18.988;2024-03-02T05:48:32;9.30;1.00
20349;DHT22;10332;50.208;18.988;2024-03-02T05:50:59;9.30;1.00
20349;DHT22;10332;50.208;18.988;2024-03-02T05:53:26;9.30;1.00
20349;DHT22;10332;50.208;18.988;2024-03-02T05:55:54;9.30;99.90
20349;DHT22;10332;50.208;18.988;2024-03-02T05:58:23;9.40;99.90
20349;DHT22;10332;50.208;18.988;2024-03-02T06:01:09;9.50;99.90
20349;DHT22;10332;50.208;18.988;2024-03-02T06:03:36;9.50;99.90
20349;DHT22;10332;50.208;18.988;2024-03-02T06:06:03;9.50;99.90
20349;DHT22;10332;50.208;18.988;2024-03-02T06:08:31;9.60;99.90
20349;DHT22;10332;50.208;18.988;2024-03-02T06:10:58;9.60;99.90
20349;DHT22;10332;50.208;18.988;2024-03-02T06:13:26;9.50;99.90
20349;DHT22;10332;50.208;18.988;2024-03-02T06:15:53;9.60;99.90
20349;DHT22;10332;50.208;18.988;2024-03-02T06:18:21;9.60;99.90
20349;DHT22;10332;50.208;18.988;2024-03-02T06:20:48;9.70;99.90
20349;DHT22;10332;50.208;18.988;2024-03-02T06:23:16;9.80;99.90
20349;DHT22;10332;50.208;18.988;2024-03-02T06:25:43;9.80;99.90
20349;DHT22;10332;50.208;18.988;2024-03-02T06:28:10;9.80;99.90
20349;DHT22;10332;50.208;18.988;2024-03-02T06:30:38;9.80;99.90
20349;DHT22;10332;50.208;18.988;2024-03-02T06:33:05;9.90;99.90
20349;DHT22;10332;50.208;18.988;2024-03-02T06:35:33;9.90;99.90
20349;DHT22;10332;50.208;18.988;2024-03-02T06:38:01;9.90;99.90
20349;DHT22;10332;50.208;18.988;2024-03-02T06:40:28;10.00;99.90
20349;DHT22;10332;50.208;18.988;2024-03-02T06:42:55;10.00;76.60
20349;DHT22;10332;50.208;18.988;2024-03-02T06:45:23;10.00;8.20
20349;DHT22;10332;50.208;18.988;2024-03-02T06:47:50;10.10;5.70
20349;DHT22;10332;50.208;18.988;2024-03-02T06:50:17;10.10;1.00
20349;DHT22;10332;50.208;18.988;2024-03-02T06:52:45;10.20;1.00
20349;DHT22;10332;50.208;18.988;2024-03-02T06:55:12;10.30;1.00
20349;DHT22;10332;50.208;18.988;2024-03-02T06:57:40;10.30;1.00
20349;DHT22;10332;50.208;18.988;2024-03-02T07:00:07;10.40;1.00
20349;DHT22;10332;50.208;18.988;2024-03-02T07:02:36;10.50;1.00
20349;DHT22;10332;50.208;18.988;2024-03-02T07:05:03;10.60;1.00
20349;DHT22;10332;50.208;18.988;2024-03-02T07:07:31;10.60;1.00
20349;DHT22;10332;50.208;18.988;2024-03-02T07:09:58;10.70;1.00
20349;DHT22;10332;50.208;18.988;2024-03-02T07:12:26;10.80;99.90
20349;DHT22;10332;50.208;18.988;2024-03-02T07:14:53;10.80;99.90
20349;DHT22;10332;50.208;18.988;2024-03-02T07:17:35;11.00;99.90
20349;DHT22;10332;50.208;18.988;2024-03-02T07:20:04;11.10;1.00
20349;DHT22;10332;50.208;18.988;2024-03-02T07:22:33;11.20;1.00
20349;DHT22;10332;50.208;18.988;2024-03-02T07:25:00;11.30;1.00
20349;DHT22;10332;50.208;18.988;2024-03-02T07:27:28;11.50;99.90
20349;DHT22;10332;50.208;18.988;2024-03-02T07:29:56;11.60;53.20
20349;DHT22;10332;50.208;18.988;2024-03-02T07:32:23;11.80;1.00
20349;DHT22;10332;50.208;18.988;2024-03-02T07:34:50;11.90;99.90
20349;DHT22;10332;50.208;18.988;2024-03-02T07:37:18;12.00;1.00
20349;DHT22;10332;50.208;18.988;2024-03-02T07:39:45;12.10;1.00
20349;DHT22;10332;50.208;18.988;2024-03-02T07:42:13;12.20;99.90
20349;DHT22;10332;50.208;18.988;2024-03-02T07:44:40;12.30;1.00
20349;DHT22;10332;50.208;18.988;2024-03-02T07:47:08;12.30;1.00
20349;DHT22;10332;50.208;18.988;2024-03-02T07:49:35;12.40;99.90
20349;DHT22;10332;50.208;18.988;2024-03-02T07:52:03;12.40;99.90
20349;DHT22;10332;50.208;18.988;2024-03-02T07:54:30;12.40;1.00
20349;DHT22;10332;50.208;18.988;2024-03-02T07:56:58;12.50;1.00
20349;DHT22;10332;50.208;18.988;2024-03-02T07:59:25;12.50;1.00
20349;DHT22;10332;50.208;18.988;2024-03-02T08:01:53;12.50;99.90
20349;DHT22;10332;50.208;18.988;2024-03-02T08:04:22;12.60;44.40
20349;DHT22;10332;50.208;18.988;2024-03-02T08:06:50;12.60;1.00
20349;DHT22;10332;50.208;18.988;2024-03-02T08:09:17;12.70;1.00
20349;DHT22;10332;50.208;18.988;2024-03-02T08:11:45;12.70;1.00
20349;DHT22;10332;50.208;18.988;2024-03-02T08:14:13;12.90;99.90
20349;DHT22;10332;50.208;18.988;2024-03-02T08:16:41;13.20;99.90
20349;DHT22;10332;50.208;18.988;2024-03-02T08:19:08;13.50;99.90
20349;DHT22;10332;50.208;18.988;2024-03-02T08:21:36;14.00;99.90
20349;DHT22;10332;50.208;18.988;2024-03-02T08:24:04;14.50;1.00
20349;DHT22;10332;50.208;18.988;2024-03-02T08:26:32;14.90;1.00
20349;DHT22;10332;50.208;18.988;2024-03-02T08:28:59;15.10;99.90
20349;DHT22;10332;50.208;18.988;2024-03-02T08:31:29;15.40;99.90
20349;DHT22;10332;50.208;18.988;2024-03-02T08:33:56;15.70;7.40
20349;DHT22;10332;50.208;18.988;2024-03-02T08:36:27;16.00;1.00
20349;DHT22;10332;50.208;18.988;2024-03-02T08:38:55;16.30;1.00
20349;DHT22;10332;50.208;18.988;2024-03-02T08:41:22;16.50;1.00
20349;DHT22;10332;50.208;18.988;2024-03-02T08:43:50;16.70;1.00
20349;DHT22;10332;50.208;18.988;2024-03-02T08:46:19;16.80;1.00
20349;DHT22;10332;50.208;18.988;2024-03-02T08:48:46;16.90;1.00
20349;DHT22;10332;50.208;18.988;2024-03-02T08:51:14;17.10;99.90
20349;DHT22;10332;50.208;18.988;2024-03-02T08:53:41;17.10;99.90
20349;DHT22;10332;50.208;18.988;2024-03-02T08:56:09;16.90;99.90
20349;DHT22;10332;50.208;18.988;2024-03-02T08:58:37;16.90;1.00
20349;DHT22;10332;50.208;18.988;2024-03-02T09:01:04;16.60;1.00
20349;DHT22;10332;50.208;18.988;2024-03-02T09:03:34;16.40;1.00
20349;DHT22;10332;50.208;18.988;2024-03-02T09:06:02;16.20;1.00
20349;DHT22;10332;50.208;18.988;2024-03-02T09:08:29;16.00;1.00
20349;DHT22;10332;50.208;18.988;2024-03-02T09:10:57;15.90;1.00
20349;DHT22;10332;50.208;18.988;2024-03-02T09:13:24;15.70;1.00
20349;DHT22;10332;50.208;18.988;2024-03-02T09:15:52;15.70;1.00
20349;DHT22;10332;50.208;18.988;2024-03-02T09:18:19;15.60;1.00
20349;DHT22;10332;50.208;18.988;2024-03-02T09:20:47;15.70;1.00
20349;DHT22;10332;50.208;18.988;2024-03-02T09:23:14;15.70;1.00
20349;DHT22;10332;50.208;18.988;2024-03-02T09:25:42;15.70;1.00
20349;DHT22;10332;50.208;18.988;2024-03-02T09:28:10;15.70;1.00
20349;DHT22;10332;50.208;18.988;2024-03-02T09:30:38;15.70;1.00
20349;DHT22;10332;50.208;18.988;2024-03-02T09:33:08;15.60;1.00
20349;DHT22;10332;50.208;18.988;2024-03-02T09:35:38;15.60;1.00
20349;DHT22;10332;50.208;18.988;2024-03-02T09:38:05;15.50;1.00
20349;DHT22;10332;50.208;18.988;2024-03-02T09:40:33;15.30;1.00
20349;DHT22;10332;50.208;18.988;2024-03-02T09:43:01;15.30;1.00
20349;DHT22;10332;50.208;18.988;2024-03-02T09:45:29;15.20;1.00
20349;DHT22;10332;50.208;18.988;2024-03-02T09:47:57;15.20;1.00
20349;DHT22;10332;50.208;18.988;2024-03-02T09:50:24;15.20;1.00
20349;DHT22;10332;50.208;18.988;2024-03-02T09:52:52;15.20;55.40
20349;DHT22;10332;50.208;18.988;2024-03-02T09:55:20;15.10;91.40
20349;DHT22;10332;50.208;18.988;2024-03-02T09:57:47;15.00;74.20
20349;DHT22;10332;50.208;18.988;2024-03-02T10:00:18;14.90;73.50
20349;DHT22;10332;50.208;18.988;2024-03-02T10:02:45;14.80;80.10
20349;DHT22;10332;50.208;18.988;2024-03-02T10:05:28;14.70;99.90
20349;DHT22;10332;50.208;18.988;2024-03-02T10:08:01;14.70;99.90
20349;DHT22;10332;50.208;18.988;2024-03-02T10:10:40;14.90;99.90
20349;DHT22;10332;50.208;18.988;2024-03-02T10:13:08;15.10;99.90
20349;DHT22;10332;50.208;18.988;2024-03-02T10:15:37;15.20;17.60
20349;DHT22;10332;50.208;18.988;2024-03-02T10:18:11;15.40;1.00
20349;DHT22;10332;50.208;18.988;2024-03-02T10:20:40;15.40;1.00
20349;DHT22;10332;50.208;18.988;2024-03-02T10:23:13;15.50;1.00
20349;DHT22;10332;50.208;18.988;2024-03-02T10:25:41;15.60;1.00
20349;DHT22;10332;50.208;18.988;2024-03-02T10:28:23;15.70;1.00
20349;DHT22;10332;50.208;18.988;2024-03-02T10:30:51;15.70;1.00
20349;DHT22;10332;50.208;18.988;2024-03-02T10:33:20;15.60;1.00
20349;DHT22;10332;50.208;18.988;2024-03-02T10:35:49;15.60;1.00
20349;DHT22;10332;50.208;18.988;2024-03-02T10:38:17;15.50;1.00
20349;DHT22;10332;50.208;18.988;2024-03-02T10:40:48;15.40;1.00
20349;DHT22;10332;50.208;18.988;2024-03-02T10:43:16;15.30;1.00
20349;DHT22;10332;50.208;18.988;2024-03-02T10:45:47;15.30;1.00
20349;DHT22;10332;50.208;18.988;2024-03-02T10:48:16;15.30;1.00
20349;DHT22;10332;50.208;18.988;2024-03-02T10:50:43;15.20;1.00
20349;DHT22;10332;50.208;18.988;2024-03-02T10:53:10;15.20;1.00
20349;DHT22;10332;50.208;18.988;2024-03-02T10:55:38;15.00;1.00
20349;DHT22;10332;50.208;18.988;2024-03-02T10:58:06;14.90;1.00
20349;DHT22;10332;50.208;18.988;2024-03-02T11:00:38;14.70;1.00
20349;DHT22;10332;50.208;18.988;2024-03-02T11:03:07;14.60;1.00
20349;DHT22;10332;50.208;18.988;2024-03-02T11:05:44;14.40;99.90
20349;DHT22;10332;50.208;18.988;2024-03-02T11:08:13;14.30;99.90
20349;DHT22;10332;50.208;18.988;2024-03-02T11:10:58;14.30;1.00
20349;DHT22;10332;50.208;18.988;2024-03-02T11:13:31;14.40;1.00
20349;DHT22;10332;50.208;18.988;2024-03-02T11:16:09;14.50;1.00
20349;DHT22;10332;50.208;18.988;2024-03-02T11:18:40;14.60;1.00
20349;DHT22;10332;50.208;18.988;2024-03-02T11:21:09;14.70;1.00
20349;DHT22;10332;50.208;18.988;2024-03-02T11:23:36;14.70;1.00
20349;DHT22;10332;50.208;18.988;2024-03-02T11:26:22;14.70;1.00
20349;DHT22;10332;50.208;18.988;2024-03-02T11:28:51;14.80;1.00
20349;DHT22;10332;50.208;18.988;2024-03-02T11:31:19;14.80;1.00
20349;DHT22;10332;50.208;18.988;2024-03-02T11:33:46;14.90;1.00
20349;DHT22;10332;50.208;18.988;2024-03-02T11:36:15;15.10;1.00
20349;DHT22;10332;50.208;18.988;2024-03-02T11:38:43;15.10;1.00
20349;DHT22;10332;50.208;18.988;2024-03-02T11:41:13;15.20;1.00
20349;DHT22;10332;50.208;18.988;2024-03-02T11:43:42;15.20;1.00
20349;DHT22;10332;50.208;18.988;2024-03-02T11:46:11;15.30;1.00
20349;DHT22;10332;50.208;18.988;2024-03-02T11:48:40;15.30;1.00
20349;DHT22;10332;50.208;18.988;2024-03-02T11:51:08;15.40;1.00
20349;DHT22;10332;50.208;18.988;2024-03-02T11:53:36;15.40;1.00
20349;DHT22;10332;50.208;18.988;2024-03-02T11:56:06;15.40;1.00
20349;DHT22;10332;50.208;18.988;2024-03-02T11:58:37;15.40;1.00
20349;DHT22;10332;50.208;18.988;2024-03-02T12:01:05;15.40;1.00
20349;DHT22;10332;50.208;18.988;2024-03-02T12:03:33;15.60;1.00
20349;DHT22;10332;50.208;18.988;2024-03-02T12:06:03;15.50;1.00
20349;DHT22;10332;50.208;18.988;2024-03-02T12:08:30;15.50;1.00
20349;DHT22;10332;50.208;18.988;2024-03-02T12:11:00;15.60;1.00
20349;DHT22;10332;50.208;18.988;2024-03-02T12:13:29;15.50;1.00
20349;DHT22;10332;50.208;18.988;2024-03-02T12:15:56;15.50;1.00
20349;DHT22;10332;50.208;18.988;2024-03-02T12:18:24;15.40;99.90
20349;DHT22;10332;50.208;18.988;2024-03-02T12:20:53;15.30;99.90
20349;DHT22;10332;50.208;18.988;2024-03-02T12:23:23;15.30;1.00
20349;DHT22;10332;50.208;18.988;2024-03-02T12:25:51;15.20;99.90
20349;DHT22;10332;50.208;18.988;2024-03-02T12:28:19;15.10;1.00
20349;DHT22;10332;50.208;18.988;2024-03-02T12:30:46;15.00;1.00
20349;DHT22;10332;50.208;18.988;2024-03-02T12:33:15;14.80;1.00
20349;DHT22;10332;50.208;18.988;2024-03-02T12:35:43;14.60;1.00
20349;DHT22;10332;50.208;18.988;2024-03-02T12:38:11;14.40;1.00
20349;DHT22;10332;50.208;18.988;2024-03-02T12:40:38;14.40;99.90
20349;DHT22;10332;50.208;18.988;2024-03-02T12:43:08;14.40;1.00
20349;DHT22;10332;50.208;18.988;2024-03-02T12:45:36;14.50;1.00
20349;DHT22;10332;50.208;18.988;2024-03-02T12:48:04;14.50;1.00
20349;DHT22;10332;50.208;18.988;2024-03-02T12:50:33;14.50;99.90
20349;DHT22;10332;50.208;18.988;2024-03-02T12:53:01;14.60;99.90
20349;DHT22;10332;50.208;18.988;2024-03-02T12:55:29;14.50;99.90
20349;DHT22;10332;50.208;18.988;2024-03-02T12:57:57;14.40;1.00
20349;DHT22;10332;50.208;18.988;2024-03-02T13:00:26;14.30;1.00
20349;DHT22;10332;50.208;18.988;2024-03-02T13:02:56;14.10;99.90
20349;DHT22;10332;50.208;18.988;2024-03-02T13:05:32;13.90;10.00
20349;DHT22;10332;50.208;18.988;2024-03-02T13:08:00;13.80;1.00
20349;DHT22;10332;50.208;18.988;2024-03-02T13:10:31;13.70;1.00
20349;DHT22;10332;50.208;18.988;2024-03-02T13:12:59;13.60;1.00
20349;DHT22;10332;50.208;18.988;2024-03-02T13:15:28;13.60;99.90
20349;DHT22;10332;50.208;18.988;2024-03-02T13:17:58;13.60;99.90
20349;DHT22;10332;50.208;18.988;2024-03-02T13:20:31;13.50;1.00
20349;DHT22;10332;50.208;18.988;2024-03-02T13:23:02;13.50;1.00
20349;DHT22;10332;50.208;18.988;2024-03-02T13:25:30;13.50;44.60
20349;DHT22;10332;50.208;18.988;2024-03-02T13:27:59;13.50;99.90
20349;DHT22;10332;50.208;18.988;2024-03-02T13:30:28;13.50;1.00
20349;DHT22;10332;50.208;18.988;2024-03-02T13:32:55;13.50;1.00
20349;DHT22;10332;50.208;18.988;2024-03-02T13:35:23;13.50;99.90
20349;DHT22;10332;50.208;18.988;2024-03-02T13:37:50;13.40;1.00
20349;DHT22;10332;50.208;18.988;2024-03-02T13:40:18;13.30;87.80
20349;DHT22;10332;50.208;18.988;2024-03-02T13:42:47;13.30;99.90
20349;DHT22;10332;50.208;18.988;2024-03-02T13:45:15;13.30;1.00
20349;DHT22;10332;50.208;18.988;2024-03-02T13:47:42;13.30;1.00
20349;DHT22;10332;50.208;18.988;2024-03-02T13:50:10;13.40;1.00
20349;DHT22;10332;50.208;18.988;2024-03-02T13:52:37;13.40;99.90
20349;DHT22;10332;50.208;18.988;2024-03-02T13:55:05;13.50;25.10
20349;DHT22;10332;50.208;18.988;2024-03-02T13:57:32;13.50;29.00
20349;DHT22;10332;50.208;18.988;2024-03-02T14:00:00;13.60;1.00
20349;DHT22;10332;50.208;18.988;2024-03-02T14:02:28;13.70;1.00
20349;DHT22;10332;50.208;18.988;2024-03-02T14:04:56;13.70;1.00
20349;DHT22;10332;50.208;18.988;2024-03-02T14:07:23;13.80;1.00
20349;DHT22;10332;50.208;18.988;2024-03-02T14:09:51;13.80;1.00
20349;DHT22;10332;50.208;18.988;2024-03-02T14:12:18;13.80;1.00
20349;DHT22;10332;50.208;18.988;2024-03-02T14:14:45;13.90;99.90
20349;DHT22;10332;50.208;18.988;2024-03-02T14:17:13;13.90;1.00
20349;DHT22;10332;50.208;18.988;2024-03-02T14:19:43;13.90;1.00
20349;DHT22;10332;50.208;18.988;2024-03-02T14:22:10;13.80;1.00
20349;DHT22;10332;50.208;18.988;2024-03-02T14:24:41;13.80;30.00
20349;DHT22;10332;50.208;18.988;2024-03-02T14:27:10;13.80;99.90
20349;DHT22;10332;50.208;18.988;2024-03-02T14:29:54;13.90;1.00
20349;DHT22;10332;50.208;18.988;2024-03-02T14:32:21;14.00;99.90
20349;DHT22;10332;50.208;18.988;2024-03-02T14:34:49;14.00;1.00
20349;DHT22;10332;50.208;18.988;2024-03-02T14:37:16;14.10;1.00
20349;DHT22;10332;50.208;18.988;2024-03-02T14:39:44;14.00;99.90
20349;DHT22;10332;50.208;18.988;2024-03-02T14:42:11;14.00;18.30
20349;DHT22;10332;50.208;18.988;2024-03-02T14:44:38;13.90;47.70
20349;DHT22;10332;50.208;18.988;2024-03-02T14:47:06;13.80;1.00
20349;DHT22;10332;50.208;18.988;2024-03-02T14:49:34;13.80;1.00
20349;DHT22;10332;50.208;18.988;2024-03-02T14:52:04;13.70;34.80
20349;DHT22;10332;50.208;18.988;2024-03-02T14:54:32;13.70;91.90
20349;DHT22;10332;50.208;18.988;2024-03-02T14:56:59;13.60;99.90
20349;DHT22;10332;50.208;18.988;2024-03-02T14:59:26;13.60;1.00
20349;DHT22;10332;50.208;18.988;2024-03-02T15:01:55;13.60;1.00
20349;DHT22;10332;50.208;18.988;2024-03-02T15:04:23;13.60;1.00
20349;DHT22;10332;50.208;18.988;2024-03-02T15:06:50;13.70;1.00
20349;DHT22;10332;50.208;18.988;2024-03-02T15:09:18;13.70;1.00
20349;DHT22;10332;50.208;18.988;2024-03-02T15:11:46;13.70;1.00
20349;DHT22;10332;50.208;18.988;2024-03-02T15:14:14;13.70;1.00
20349;DHT22;10332;50.208;18.988;2024-03-02T15:16:42;13.80;1.00
20349;DHT22;10332;50.208;18.988;2024-03-02T15:19:09;13.80;1.00
20349;DHT22;10332;50.208;18.988;2024-03-02T15:21:36;13.80;99.90
20349;DHT22;10332;50.208;18.988;2024-03-02T15:24:04;13.70;99.90
20349;DHT22;10332;50.208;18.988;2024-03-02T15:26:32;13.70;99.90
20349;DHT22;10332;50.208;18.988;2024-03-02T15:28:59;13.60;1.00
20349;DHT22;10332;50.208;18.988;2024-03-02T15:31:26;13.50;1.00
20349;DHT22;10332;50.208;18.988;2024-03-02T15:33:54;13.50;1.00
20349;DHT22;10332;50.208;18.988;2024-03-02T15:36:24;13.40;1.00
20349;DHT22;10332;50.208;18.988;2024-03-02T15:38:52;13.30;99.90
20349;DHT22;10332;50.208;18.988;2024-03-02T15:41:19;13.30;1.00
20349;DHT22;10332;50.208;18.988;2024-03-02T15:43:46;13.20;1.00